createdAt,value
2018-10-02T00:00:07.965Z,101353.95
2018-10-02T00:02:36.528Z,101345.81
2018-10-02T00:05:05.736Z,101346.56
2018-10-02T00:07:34.262Z,101352.27
2018-10-02T00:10:02.822Z,101342.77
2018-10-02T00:12:36.562Z,101347.03
2018-10-02T00:15:05.466Z,101336.66
2018-10-02T00:17:34.075Z,101339.84
2018-10-02T00:20:02.725Z,101345.16
2018-10-02T00:22:31.198Z,101347.14
2018-10-02T00:24:59.742Z,101338.11
2018-10-02T00:27:28.840Z,101341.34
2018-10-02T00:29:57.378Z,101345.91
2018-10-02T00:32:26.066Z,101350.50
2018-10-02T00:34:54.503Z,101344.05
2018-10-02T00:37:23.767Z,101339.42
2018-10-02T00:39:52.369Z,101334.88
2018-10-02T00:42:20.967Z,101336.28
2018-10-02T00:44:49.598Z,101332.63
2018-10-02T00:47:18.111Z,101331.41
2018-10-02T00:49:46.626Z,101338.23
2018-10-02T00:52:15.216Z,101329.91
2018-10-02T00:54:43.710Z,101320.67
2018-10-02T00:57:12.214Z,101311.41
2018-10-02T00:59:40.751Z,101300.82
2018-10-02T01:02:09.359Z,101291.84
2018-10-02T01:04:37.921Z,101295.56
2018-10-02T01:07:06.560Z,101296.44
2018-10-02T01:09:35.167Z,101295.84
2018-10-02T01:12:03.698Z,101292.31
2018-10-02T01:14:32.174Z,101286.84
2018-10-02T01:17:01.262Z,101287.47
2018-10-02T01:19:30.454Z,101280.48
2018-10-02T01:21:58.974Z,101274.76
2018-10-02T01:24:27.538Z,101275.16
2018-10-02T01:26:56.106Z,101270.67
2018-10-02T01:29:24.666Z,101268.84
2018-10-02T01:31:53.200Z,101270.91
2018-10-02T01:34:22.007Z,101263.99
2018-10-02T01:36:50.667Z,101268.35
2018-10-02T01:39:19.225Z,101264.75
2018-10-02T01:41:47.784Z,101262.04
2018-10-02T01:44:17.926Z,101257.52
2018-10-02T01:46:46.444Z,101261.80
2018-10-02T01:49:15.700Z,101258.26
2018-10-02T01:51:44.246Z,101249.41
2018-10-02T01:54:12.812Z,101252.80
2018-10-02T01:56:41.345Z,101241.23
2018-10-02T01:59:10.966Z,101233.87
2018-10-02T02:01:39.464Z,101225.64
2018-10-02T02:04:07.977Z,101233.27
2018-10-02T02:06:36.623Z,101221.31
2018-10-02T02:09:06.596Z,101225.45
2018-10-02T02:11:35.199Z,101215.49
2018-10-02T02:14:03.698Z,101212.47
2018-10-02T02:16:32.256Z,101213.09
2018-10-02T02:19:00.879Z,101210.95
2018-10-02T02:21:29.470Z,101201.81
2018-10-02T02:23:57.950Z,101198.73
2018-10-02T02:26:26.462Z,101195.95
2018-10-02T02:28:54.938Z,101191.06
2018-10-02T02:31:23.539Z,101189.24
2018-10-02T02:33:52.662Z,101175.23
2018-10-02T02:36:21.189Z,101179.80
2018-10-02T02:38:49.703Z,101169.03
2018-10-02T02:41:18.232Z,101171.34
2018-10-02T02:43:46.764Z,101165.47
2018-10-02T02:46:15.263Z,101158.59
2018-10-02T02:48:49.135Z,101151.03
2018-10-02T02:51:33.562Z,101146.30
2018-10-02T02:54:02.099Z,101151.86
2018-10-02T02:56:31.634Z,101165.16
2018-10-02T02:59:00.953Z,101155.97
2018-10-02T03:01:30.627Z,101141.26
2018-10-02T03:03:59.539Z,101130.95
2018-10-02T03:06:28.753Z,101126.70
2018-10-02T03:08:57.250Z,101128.02
2018-10-02T03:11:25.902Z,101126.62
2018-10-02T03:13:54.385Z,101120.38
2018-10-02T03:16:22.887Z,101115.48
2018-10-02T03:18:51.361Z,101115.80
2018-10-02T03:21:19.845Z,101112.54
2018-10-02T03:23:48.522Z,101103.34
2018-10-02T03:26:17.019Z,101100.39
2018-10-02T03:28:45.541Z,101092.55
2018-10-02T03:31:14.089Z,101086.14
2018-10-02T03:33:42.574Z,101073.04
2018-10-02T03:36:11.136Z,101054.48
2018-10-02T03:38:39.670Z,101050.54
2018-10-02T03:41:08.208Z,101048.27
2018-10-02T03:43:36.734Z,101038.94
2018-10-02T03:46:05.340Z,101039.73
2018-10-02T03:48:34.318Z,101045.69
2018-10-02T03:51:02.914Z,101044.73
2018-10-02T03:53:31.424Z,101049.02
2018-10-02T03:55:59.949Z,101046.20
2018-10-02T03:58:28.471Z,101039.14
2018-10-02T04:00:57.025Z,101030.94
2018-10-02T04:03:25.605Z,101031.92
2018-10-02T04:05:54.079Z,101033.75
2018-10-02T04:08:22.650Z,101026.19
2018-10-02T04:10:51.210Z,101026.70
2018-10-02T04:13:19.886Z,101025.72
2018-10-02T04:15:48.392Z,101027.08
2018-10-02T04:18:16.973Z,101029.19
2018-10-02T04:20:45.521Z,101024.92
2018-10-02T04:23:13.990Z,101003.56
2018-10-02T04:25:43.453Z,101018.03
2018-10-02T04:28:12.031Z,101010.61
2018-10-02T04:30:40.556Z,101010.61
2018-10-02T04:33:09.074Z,101004.87
2018-10-02T04:35:38.425Z,101005.33
2018-10-02T04:38:07.634Z,101010.77
2018-10-02T04:40:36.186Z,101009.27
2018-10-02T04:43:05.459Z,101006.34
2018-10-02T04:45:34.022Z,101007.81
2018-10-02T04:48:03.283Z,101001.25
2018-10-02T04:50:31.823Z,101001.71
2018-10-02T04:53:00.368Z,100998.09
2018-10-02T04:55:28.862Z,100998.09
2018-10-02T04:57:57.390Z,100988.06
2018-10-02T05:00:25.950Z,100979.03
2018-10-02T05:02:54.435Z,100963.61
2018-10-02T05:05:22.902Z,100957.02
2018-10-02T05:07:58.110Z,100951.76
2018-10-02T05:10:26.577Z,100946.66
2018-10-02T05:12:55.125Z,100939.59
2018-10-02T05:15:23.615Z,100930.05
2018-10-02T05:17:52.145Z,100923.81
2018-10-02T05:20:20.762Z,100915.77
2018-10-02T05:22:49.310Z,100912.67
2018-10-02T05:25:17.830Z,100925.13
2018-10-02T05:27:46.388Z,100918.91
2018-10-02T05:30:14.885Z,100914.62
2018-10-02T05:32:43.454Z,100914.62
2018-10-02T05:35:12.047Z,100909.05
2018-10-02T05:37:40.449Z,100918.08
2018-10-02T05:40:09.055Z,100909.19
2018-10-02T05:42:37.665Z,100896.88
2018-10-02T05:45:07.151Z,100883.56
2018-10-02T05:47:35.721Z,100889.64
2018-10-02T05:50:04.248Z,100885.87
2018-10-02T05:52:32.758Z,100882.75
2018-10-02T05:55:01.297Z,100875.66
2018-10-02T05:57:30.235Z,100862.70
2018-10-02T05:59:58.917Z,100854.80
2018-10-02T06:02:29.966Z,100855.32
2018-10-02T06:04:58.598Z,100851.38
2018-10-02T06:07:27.358Z,100842.17
2018-10-02T06:09:56.469Z,100833.13
2018-10-02T06:12:25.078Z,100836.08
2018-10-02T06:14:53.579Z,100831.98
2018-10-02T06:17:22.113Z,100830.66
2018-10-02T06:19:50.753Z,100837.90
2018-10-02T06:22:19.388Z,100835.91
2018-10-02T06:24:48.014Z,100825.57
2018-10-02T06:27:16.555Z,100823.26
2018-10-02T06:29:45.174Z,100825.72
2018-10-02T06:32:13.730Z,100820.96
2018-10-02T06:34:42.369Z,100831.16
2018-10-02T06:37:10.945Z,100827.37
2018-10-02T06:39:39.499Z,100823.26
2018-10-02T06:42:08.095Z,100837.06
2018-10-02T06:44:36.786Z,100814.55
2018-10-02T06:47:05.350Z,100834.11
2018-10-02T06:49:33.954Z,100826.87
2018-10-02T06:52:02.617Z,100820.14
2018-10-02T06:54:31.063Z,100807.31
2018-10-02T06:56:59.587Z,100827.20
2018-10-02T06:59:28.127Z,100819.64
2018-10-02T07:01:56.697Z,100807.47
2018-10-02T07:04:25.991Z,100821.59
2018-10-02T07:06:54.719Z,100812.70
2018-10-02T07:09:23.167Z,100791.83
2018-10-02T07:11:51.733Z,100813.50
2018-10-02T07:14:20.273Z,100807.44
2018-10-02T07:16:48.810Z,100802.48
2018-10-02T07:19:17.292Z,100794.42
2018-10-02T07:21:45.871Z,100777.16
2018-10-02T07:24:14.342Z,100772.55
2018-10-02T07:26:42.916Z,100767.77
2018-10-02T07:29:11.471Z,100763.69
2018-10-02T07:31:40.167Z,100769.42
2018-10-02T07:34:08.728Z,100764.97
2018-10-02T07:36:39.086Z,100772.23
2018-10-02T07:39:09.148Z,100764.69
2018-10-02T07:41:38.753Z,100775.52
2018-10-02T07:44:07.210Z,100770.88
2018-10-02T07:46:35.707Z,100764.96
2018-10-02T07:49:04.229Z,100768.25
2018-10-02T07:51:32.726Z,100760.53
2018-10-02T07:54:01.290Z,100745.53
2018-10-02T07:56:29.871Z,100748.17
2018-10-02T07:58:58.479Z,100738.45
2018-10-02T08:01:27.030Z,100731.87
2018-10-02T08:03:55.533Z,100726.59
2018-10-02T08:06:24.044Z,100728.34
2018-10-02T08:08:52.700Z,100720.75
2018-10-02T08:11:22.061Z,100719.23
2018-10-02T08:13:50.653Z,100709.84
2018-10-02T08:16:19.202Z,100735.70
2018-10-02T08:18:47.706Z,100732.59
2018-10-02T08:21:16.725Z,100721.27
2018-10-02T08:23:45.300Z,100714.83
2018-10-02T08:26:14.387Z,100722.37
2018-10-02T08:28:42.911Z,100727.61
2018-10-02T08:31:11.479Z,100719.71
2018-10-02T08:33:39.959Z,100706.79
2018-10-02T08:36:08.810Z,100704.52
2018-10-02T08:38:37.268Z,100703.49
2018-10-02T08:41:05.796Z,100699.89
2018-10-02T08:43:35.674Z,100698.89
2018-10-02T08:46:04.147Z,100703.66
2018-10-02T08:48:32.696Z,100697.91
2018-10-02T08:51:01.766Z,100699.18
2018-10-02T08:53:30.235Z,100693.88
2018-10-02T08:55:58.722Z,100682.82
2018-10-02T08:58:27.742Z,100688.84
2018-10-02T09:00:56.420Z,100686.73
2018-10-02T09:03:25.308Z,100674.23
2018-10-02T09:05:53.846Z,100687.10
2018-10-02T09:08:22.364Z,100692.32
2018-10-02T09:10:50.928Z,100689.76
2018-10-02T09:13:19.822Z,100697.80
2018-10-02T09:15:48.467Z,100700.42
2018-10-02T09:18:16.941Z,100697.87
2018-10-02T09:20:45.604Z,100694.08
2018-10-02T09:23:14.084Z,100690.90
2018-10-02T09:25:42.662Z,100683.61
2018-10-02T09:28:11.235Z,100674.27
2018-10-02T09:30:44.881Z,100674.81
2018-10-02T09:33:18.643Z,100675.80
2018-10-02T09:35:52.323Z,100676.78
2018-10-02T09:38:26.146Z,100672.94
2018-10-02T09:40:59.758Z,100674.22
2018-10-02T09:43:40.806Z,100679.83
2018-10-02T09:46:09.332Z,100672.48
2018-10-02T09:48:44.578Z,100673.70
2018-10-02T09:51:13.094Z,100678.16
2018-10-02T09:53:41.613Z,100673.85
2018-10-02T09:56:10.184Z,100677.39
2018-10-02T09:58:38.737Z,100675.02
2018-10-02T10:01:11.719Z,100670.89
2018-10-02T10:03:40.274Z,100671.30
2018-10-02T10:06:08.813Z,100669.03
2018-10-02T10:08:37.423Z,100663.82
2018-10-02T10:11:05.995Z,100667.27
2018-10-02T10:13:34.919Z,100669.36
2018-10-02T10:16:03.740Z,100673.64
2018-10-02T10:18:32.281Z,100672.02
2018-10-02T10:21:00.791Z,100665.14
2018-10-02T10:23:29.322Z,100663.02
2018-10-02T10:25:57.835Z,100661.38
2018-10-02T10:28:26.948Z,100656.59
2018-10-02T10:30:55.494Z,100660.69
2018-10-02T10:33:24.015Z,100659.55
2018-10-02T10:35:52.513Z,100661.52
2018-10-02T10:38:21.191Z,100653.25
2018-10-02T10:40:49.821Z,100648.98
2018-10-02T10:43:19.355Z,100643.42
2018-10-02T10:45:48.167Z,100643.02
2018-10-02T10:48:16.686Z,100640.70
2018-10-02T10:50:45.202Z,100634.41
2018-10-02T10:53:13.812Z,100640.13
2018-10-02T10:55:42.322Z,100648.70
2018-10-02T10:58:10.890Z,100654.16
2018-10-02T11:00:39.429Z,100647.30
2018-10-02T11:03:07.972Z,100655.48
2018-10-02T11:05:36.639Z,100655.75
2018-10-02T11:08:05.155Z,100655.30
2018-10-02T11:10:33.731Z,100648.88
2018-10-02T11:13:02.264Z,100650.67
2018-10-02T11:15:32.121Z,100645.66
2018-10-02T11:18:01.083Z,100638.05
2018-10-02T11:20:32.272Z,100639.50
2018-10-02T11:23:00.986Z,100636.75
2018-10-02T11:25:29.621Z,100634.78
2018-10-02T11:27:58.695Z,100638.19
2018-10-02T11:30:27.237Z,100632.92
2018-10-02T11:32:55.877Z,100643.64
2018-10-02T11:35:24.488Z,100644.84
2018-10-02T11:37:53.006Z,100640.77
2018-10-02T11:40:21.542Z,100636.22
2018-10-02T11:42:50.134Z,100626.06
2018-10-02T11:45:18.702Z,100617.50
2018-10-02T11:47:47.187Z,100632.55
2018-10-02T11:50:15.785Z,100624.54
2018-10-02T11:52:44.407Z,100636.35
2018-10-02T11:55:12.908Z,100628.21
2018-10-02T11:57:41.443Z,100631.33
2018-10-02T12:00:10.605Z,100625.68
2018-10-02T12:02:39.259Z,100626.47
2018-10-02T12:05:07.819Z,100629.97
2018-10-02T12:07:36.374Z,100618.17
2018-10-02T12:10:04.991Z,100618.12
2018-10-02T12:12:33.491Z,100623.36
2018-10-02T12:15:02.035Z,100624.69
2018-10-02T12:17:30.568Z,100622.36
2018-10-02T12:19:59.293Z,100619.23
2018-10-02T12:22:27.666Z,100621.99
2018-10-02T12:24:56.166Z,100625.88
2018-10-02T12:27:24.726Z,100624.22
2018-10-02T12:29:53.263Z,100620.03
2018-10-02T12:32:21.855Z,100624.21
2018-10-02T12:34:50.392Z,100627.08
2018-10-02T12:37:18.877Z,100622.09
2018-10-02T12:39:47.424Z,100628.52
2018-10-02T12:42:15.910Z,100615.93
2018-10-02T12:44:45.491Z,100622.05
2018-10-02T12:47:14.040Z,100622.01
2018-10-02T12:49:42.559Z,100628.66
2018-10-02T12:52:11.135Z,100623.56
2018-10-02T12:54:39.722Z,100628.16
2018-10-02T12:57:08.308Z,100629.53
2018-10-02T12:59:36.806Z,100625.97
2018-10-02T13:02:05.426Z,100622.58
2018-10-02T13:04:33.994Z,100624.52
2018-10-02T13:07:02.616Z,100620.36
2018-10-02T13:09:31.149Z,100624.08
2018-10-02T13:11:59.853Z,100618.69
2018-10-02T13:14:29.166Z,100619.41
2018-10-02T13:16:57.734Z,100619.48
2018-10-02T13:19:26.374Z,100626.39
2018-10-02T13:21:55.733Z,100631.27
2018-10-02T13:24:24.308Z,100630.83
2018-10-02T13:26:52.906Z,100620.64
2018-10-02T13:29:22.689Z,100630.93
2018-10-02T13:31:51.216Z,100628.48
2018-10-02T13:34:19.843Z,100627.53
2018-10-02T13:36:49.212Z,100626.39
2018-10-02T13:39:17.739Z,100631.98
2018-10-02T13:41:46.243Z,100625.66
2018-10-02T13:44:14.819Z,100631.66
2018-10-02T13:46:43.472Z,100631.91
2018-10-02T13:49:12.025Z,100630.86
2018-10-02T13:51:40.630Z,100635.36
2018-10-02T13:54:09.174Z,100642.69
2018-10-02T13:56:37.872Z,100641.79
2018-10-02T13:59:06.578Z,100662.30
2018-10-02T14:01:35.090Z,100651.75
2018-10-02T14:04:03.640Z,100659.86
2018-10-02T14:06:32.271Z,100661.97
2018-10-02T14:09:00.853Z,100670.01
2018-10-02T14:11:30.047Z,100663.85
2018-10-02T14:13:58.586Z,100666.63
2018-10-02T14:16:27.137Z,100654.03
2018-10-02T14:18:55.714Z,100674.13
2018-10-02T14:21:24.311Z,100679.69
2018-10-02T14:23:52.881Z,100678.80
2018-10-02T14:26:21.561Z,100687.59
2018-10-02T14:28:50.426Z,100688.80
2018-10-02T14:31:19.047Z,100681.20
2018-10-02T14:33:47.556Z,100684.23
2018-10-02T14:36:16.482Z,100687.20
2018-10-02T14:38:45.004Z,100695.07
2018-10-02T14:41:14.030Z,100670.86
2018-10-02T14:43:42.551Z,100683.52
2018-10-02T14:46:11.345Z,100685.34
2018-10-02T14:48:40.323Z,100705.13
2018-10-02T14:51:08.943Z,100700.75
2018-10-02T14:53:37.637Z,100711.37
2018-10-02T14:56:06.680Z,100714.72
2018-10-02T14:58:35.267Z,100722.27
2018-10-02T15:01:03.851Z,100720.90
2018-10-02T15:03:32.403Z,100722.95
2018-10-02T15:06:01.104Z,100725.02
2018-10-02T15:08:29.683Z,100734.95
2018-10-02T15:10:58.310Z,100729.88
2018-10-02T15:13:27.606Z,100740.05
2018-10-02T15:15:56.214Z,100741.63
2018-10-02T15:18:24.702Z,100750.21
2018-10-02T15:20:53.231Z,100755.36
2018-10-02T15:23:21.759Z,100756.80
2018-10-02T15:25:50.320Z,100752.66
2018-10-02T15:28:19.520Z,100762.73
2018-10-02T15:30:48.065Z,100763.88
2018-10-02T15:33:16.645Z,100763.31
2018-10-02T15:35:45.154Z,100770.02
2018-10-02T15:38:13.721Z,100779.87
2018-10-02T15:40:42.296Z,100784.22
2018-10-02T15:43:10.819Z,100782.96
2018-10-02T15:45:39.403Z,100784.29
2018-10-02T15:48:08.102Z,100788.99
2018-10-02T15:50:36.701Z,100792.38
2018-10-02T15:53:05.254Z,100801.58
2018-10-02T15:55:33.842Z,100792.27
2018-10-02T15:58:02.539Z,100797.06
2018-10-02T16:00:31.063Z,100799.32
2018-10-02T16:02:59.638Z,100804.04
2018-10-02T16:05:28.926Z,100803.45
2018-10-02T16:07:57.631Z,100803.73
2018-10-02T16:10:26.410Z,100798.76
2018-10-02T16:12:54.986Z,100804.46
2018-10-02T16:15:23.539Z,100807.73
2018-10-02T16:17:52.476Z,100807.12
2018-10-02T16:20:21.108Z,100814.55
2018-10-02T16:22:49.799Z,100811.30
2018-10-02T16:25:18.440Z,100815.77
2018-10-02T16:27:47.122Z,100816.97
2018-10-02T16:30:15.734Z,100824.43
2018-10-02T16:32:44.465Z,100827.09
2018-10-02T16:35:14.296Z,100826.39
2018-10-02T16:37:43.740Z,100832.82
2018-10-02T16:40:12.474Z,100833.73
2018-10-02T16:42:41.132Z,100840.29
2018-10-02T16:45:10.238Z,100842.41
2018-10-02T16:47:39.131Z,100840.55
2018-10-02T16:50:08.039Z,100851.63
2018-10-02T16:52:36.571Z,100861.39
2018-10-02T16:55:05.283Z,100863.80
2018-10-02T16:57:35.331Z,100858.11
2018-10-02T17:00:04.190Z,100869.02
2018-10-02T17:02:32.984Z,100872.95
2018-10-02T17:05:01.590Z,100876.85
2018-10-02T17:07:30.325Z,100870.32
2018-10-02T17:09:58.966Z,100868.99
2018-10-02T17:12:27.522Z,100870.14
2018-10-02T17:14:56.079Z,100884.87
2018-10-02T17:17:24.832Z,100884.57
2018-10-02T17:19:53.463Z,100891.43
2018-10-02T17:22:22.021Z,100895.69
2018-10-02T17:24:50.650Z,100903.75
2018-10-02T17:27:19.258Z,100898.55
2018-10-02T17:29:47.813Z,100897.70
2018-10-02T17:32:16.442Z,100892.16
2018-10-02T17:34:45.016Z,100902.95
2018-10-02T17:37:13.935Z,100906.03
2018-10-02T17:39:42.443Z,100902.89
2018-10-02T17:42:11.163Z,100907.11
2018-10-02T17:44:39.933Z,100912.66
2018-10-02T17:47:09.915Z,100923.69
2018-10-02T17:49:39.417Z,100909.70
2018-10-02T17:52:08.766Z,100928.30
2018-10-02T17:54:37.417Z,100916.52
2018-10-02T17:57:06.051Z,100915.19
2018-10-02T17:59:34.664Z,100918.34
2018-10-02T18:02:03.203Z,100906.84
2018-10-02T18:04:31.775Z,100912.00
2018-10-02T18:07:00.548Z,100917.10
2018-10-02T18:09:29.095Z,100911.74
2018-10-02T18:11:57.775Z,100927.83
2018-10-02T18:14:26.502Z,100927.70
2018-10-02T18:16:55.199Z,100921.72
2018-10-02T18:19:23.750Z,100914.36
2018-10-02T18:21:52.287Z,100920.59
2018-10-02T18:24:20.911Z,100924.95
2018-10-02T18:26:49.625Z,100922.30
2018-10-02T18:29:18.183Z,100920.67
2018-10-02T18:31:46.730Z,100922.20
2018-10-02T18:34:15.388Z,100924.99
2018-10-02T18:36:44.001Z,100922.97
2018-10-02T18:39:12.700Z,100932.44
2018-10-02T18:41:41.311Z,100925.88
2018-10-02T18:44:10.987Z,100941.33
2018-10-02T18:46:39.597Z,100949.42
2018-10-02T18:49:08.202Z,100955.61
2018-10-02T18:51:36.839Z,100958.70
2018-10-02T18:54:05.358Z,100955.45
2018-10-02T18:56:33.998Z,100951.47
2018-10-02T18:59:03.049Z,100958.21
2018-10-02T19:01:31.612Z,100969.58
2018-10-02T19:04:00.111Z,100971.15
2018-10-02T19:06:28.743Z,100975.33
2018-10-02T19:09:02.661Z,100966.38
2018-10-02T19:11:36.552Z,100981.48
2018-10-02T19:14:05.086Z,100996.06
2018-10-02T19:16:34.786Z,100976.91
2018-10-02T19:19:03.408Z,100982.31
2018-10-02T19:21:32.036Z,100977.11
2018-10-02T19:24:00.858Z,100981.45
2018-10-02T19:26:30.693Z,100980.98
2018-10-02T19:28:59.295Z,100972.23
2018-10-02T19:31:33.002Z,100985.13
2018-10-02T19:34:02.196Z,100988.73
2018-10-02T19:36:30.802Z,100989.19
2018-10-02T19:39:02.385Z,100985.91
2018-10-02T19:41:31.322Z,100994.64
2018-10-02T19:43:59.975Z,100998.12
2018-10-02T19:46:34.487Z,101005.78
2018-10-02T19:49:03.202Z,101010.77
2018-10-02T19:51:36.933Z,101012.87
2018-10-02T19:54:05.505Z,101015.21
2018-10-02T19:56:34.200Z,101011.56
2018-10-02T19:59:02.914Z,101009.64
2018-10-02T20:01:31.610Z,101023.03
2018-10-02T20:04:00.184Z,101021.17
2018-10-02T20:06:28.686Z,101033.47
2018-10-02T20:08:57.274Z,101040.00
2018-10-02T20:11:25.795Z,101047.80
2018-10-02T20:13:54.320Z,101036.92
2018-10-02T20:16:22.894Z,101040.54
2018-10-02T20:18:51.450Z,101035.78
2018-10-02T20:21:20.011Z,101030.47
2018-10-02T20:23:48.589Z,101035.62
2018-10-02T20:26:17.098Z,101029.86
2018-10-02T20:28:45.638Z,101025.89
2018-10-02T20:31:14.219Z,101025.19
2018-10-02T20:33:42.926Z,101031.59
2018-10-02T20:36:11.430Z,101037.97
2018-10-02T20:38:39.952Z,101038.51
2018-10-02T20:41:08.519Z,101044.31
2018-10-02T20:43:37.104Z,101045.81
2018-10-02T20:46:05.727Z,101042.69
2018-10-02T20:48:34.228Z,101034.96
2018-10-02T20:51:02.844Z,101049.59
2018-10-02T20:53:31.570Z,101047.97
2018-10-02T20:56:00.078Z,101048.33
2018-10-02T20:58:28.787Z,101047.53
2018-10-02T21:00:57.295Z,101046.53
2018-10-02T21:03:25.951Z,101053.64
2018-10-02T21:05:54.559Z,101048.20
2018-10-02T21:08:23.114Z,101045.38
2018-10-02T21:10:51.751Z,101040.22
2018-10-02T21:13:20.306Z,101039.52
2018-10-02T21:15:48.858Z,101043.59
2018-10-02T21:18:17.634Z,101046.06
2018-10-02T21:20:46.216Z,101048.02
2018-10-02T21:23:14.759Z,101042.88
2018-10-02T21:25:43.320Z,101041.23
2018-10-02T21:28:12.530Z,101049.36
2018-10-02T21:30:41.617Z,101056.19
2018-10-02T21:33:12.448Z,101055.72
2018-10-02T21:35:41.249Z,101055.27
2018-10-02T21:38:09.795Z,101054.66
2018-10-02T21:40:38.302Z,101055.62
2018-10-02T21:43:07.058Z,101053.69
2018-10-02T21:45:35.604Z,101058.34
2018-10-02T21:48:04.399Z,101058.02
2018-10-02T21:50:33.009Z,101057.39
2018-10-02T21:53:01.753Z,101067.28
2018-10-02T21:55:30.558Z,101072.89
2018-10-02T21:57:59.148Z,101071.58
2018-10-02T22:00:30.074Z,101067.94
2018-10-02T22:02:58.698Z,101071.58
2018-10-02T22:05:27.190Z,101070.25
2018-10-02T22:07:55.862Z,101066.59
2018-10-02T22:10:24.378Z,101069.86
2018-10-02T22:12:53.259Z,101067.32
2018-10-02T22:15:21.755Z,101076.51
2018-10-02T22:17:50.276Z,101074.03
2018-10-02T22:20:18.782Z,101074.17
2018-10-02T22:22:47.286Z,101068.71
2018-10-02T22:25:15.814Z,101079.92
2018-10-02T22:27:44.355Z,101074.61
2018-10-02T22:30:13.823Z,101073.45
2018-10-02T22:32:42.612Z,101072.92
2018-10-02T22:35:11.115Z,101065.67
2018-10-02T22:37:39.655Z,101077.23
2018-10-02T22:40:08.344Z,101079.92
2018-10-02T22:42:36.971Z,101077.60
2018-10-02T22:45:05.506Z,101068.36
2018-10-02T22:47:34.843Z,101076.98
2018-10-02T22:50:03.331Z,101072.85
2018-10-02T22:52:31.869Z,101083.58
2018-10-02T22:55:00.469Z,101086.03
2018-10-02T22:57:28.942Z,101073.64
2018-10-02T22:59:57.431Z,101076.92
2018-10-02T23:02:25.961Z,101073.09
2018-10-02T23:04:54.487Z,101070.58
2018-10-02T23:07:23.579Z,101067.58
2018-10-02T23:09:52.168Z,101068.52
2018-10-02T23:12:20.676Z,101073.13
2018-10-02T23:14:49.266Z,101059.45
2018-10-02T23:17:17.761Z,101050.66
2018-10-02T23:19:46.258Z,101068.14
2018-10-02T23:22:14.799Z,101061.16
2018-10-02T23:24:43.361Z,101065.79
2018-10-02T23:27:11.823Z,101073.70
2018-10-02T23:29:40.323Z,101079.45
2018-10-02T23:32:08.854Z,101075.67
2018-10-02T23:34:37.373Z,101075.67
2018-10-02T23:37:05.926Z,101075.47
2018-10-02T23:39:34.471Z,101078.78
2018-10-02T23:42:03.110Z,101072.67
2018-10-02T23:44:31.640Z,101074.82
2018-10-02T23:47:00.186Z,101088.50
2018-10-02T23:49:28.703Z,101090.48
2018-10-02T23:51:57.231Z,101095.05
2018-10-02T23:54:25.967Z,101095.70
2018-10-02T23:56:54.522Z,101105.78
2018-10-02T23:59:23.132Z,101105.06
